Time;durP1;ratioP1;P1;durP2;ratioP2;P2;SDS_P1;SDS_P2;PMS_P1;PMS_P2;Temp;Humidity;BMP_temperature;BMP_pressure;BME280_temperature;BME280_humidity;BME280_pressure;Samples;Min_cycle;Max_cycle;Signal;HPM_P1;HPM_P2
2022/10/12 00:00:05;;;;;;;4.37;3.97;;;;;18.80;101395.00;;;;2056840;28;20320;-50
2022/10/12 00:01:05;;;;;;;4.80;4.30;;;;;18.80;101392.00;;;;2053451;28;20234;-50
2022/10/12 00:02:06;;;;;;;5.17;4.23;;;;;18.80;101396.00;;;;2057345;28;20532;-50
2022/10/12 00:03:06;;;;;;;4.50;4.10;;;;;18.90;101386.00;;;;2056750;28;20231;-50
2022/10/12 00:04:06;;;;;;;4.70;4.20;;;;;18.90;101321.00;;;;2053732;28;20219;-50
2022/10/12 00:05:07;;;;;;;4.70;4.27;;;;;18.90;101395.00;;;;2057906;28;20297;-50
2022/10/12 00:06:13;;;;;;;4.47;4.10;;;;;18.80;101393.00;;;;2061255;28;20230;-50
2022/10/12 00:07:13;;;;;;;4.40;4.10;;;;;18.80;101396.00;;;;2059345;28;20233;-50
2022/10/12 00:08:14;;;;;;;4.60;4.20;;;;;18.80;101401.00;;;;2054683;28;20695;-50
2022/10/12 00:09:14;;;;;;;4.47;4.07;;;;;18.80;101394.00;;;;2057781;28;20220;-50
2022/10/12 00:10:14;;;;;;;4.33;3.70;;;;;18.80;101384.00;;;;2061069;28;20257;-50
2022/10/12 00:11:17;;;;;;;4.20;3.80;;;;;18.80;101389.00;;;;2059233;28;20739;-50
2022/10/12 00:12:17;;;;;;;4.10;3.80;;;;;18.80;101386.00;;;;2060919;28;20323;-50
2022/10/12 00:13:18;;;;;;;4.93;4.43;;;;;18.90;101388.00;;;;2054061;28;20241;-50
2022/10/12 00:14:18;;;;;;;4.40;4.00;;;;;18.90;101393.00;;;;2062202;28;20221;-50
2022/10/12 00:15:18;;;;;;;4.43;4.13;;;;;18.90;101391.00;;;;2060165;28;20215;-50
2022/10/12 00:16:19;;;;;;;4.93;4.30;;;;;18.90;101389.00;;;;2060933;28;20211;-50
2022/10/12 00:17:20;;;;;;;4.65;3.95;;;;;18.90;101401.00;;;;2062619;28;20234;-50
2022/10/12 00:18:20;;;;;;;4.87;4.47;;;;;18.80;101394.00;;;;2062473;28;20218;-48
2022/10/12 00:19:20;;;;;;;4.33;3.93;;;;;18.80;101390.00;;;;2062247;28;20214;-52
2022/10/12 00:20:21;;;;;;;4.30;3.93;;;;;18.90;101393.00;;;;2062381;28;20225;-50
2022/10/12 00:21:21;;;;;;;4.17;3.80;;;;;18.90;101386.00;;;;2061503;28;20210;-52
2022/10/12 00:22:21;;;;;;;5.30;4.03;;;;;18.80;101392.00;;;;2060857;28;20265;-52
2022/10/12 00:23:22;;;;;;;4.40;4.00;;;;;18.80;101383.00;;;;2061042;28;20289;-52
2022/10/12 00:24:22;;;;;;;4.30;3.90;;;;;18.90;101389.00;;;;2062411;28;20214;-51
2022/10/12 00:25:22;;;;;;;4.53;4.10;;;;;18.80;101389.00;;;;2062295;28;20227;-51
2022/10/12 00:26:23;;;;;;;4.63;4.13;;;;;18.90;101387.00;;;;2061407;28;20218;-51
2022/10/12 00:27:23;;;;;;;5.50;4.10;;;;;18.80;101383.00;;;;2062142;28;20292;-49
2022/10/12 00:28:23;;;;;;;4.33;4.00;;;;;18.80;101386.00;;;;2062265;28;20217;-50
2022/10/12 00:29:24;;;;;;;4.27;3.87;;;;;18.80;101383.00;;;;2062182;28;20686;-52
2022/10/12 00:30:24;;;;;;;3.73;3.40;;;;;18.80;101381.00;;;;2061757;28;20221;-51
2022/10/12 00:31:25;;;;;;;5.07;4.50;;;;;18.80;101383.00;;;;2062360;28;20211;-51
2022/10/12 00:32:25;;;;;;;4.07;3.70;;;;;18.80;101386.00;;;;2061168;28;20233;-51
2022/10/12 00:33:29;;;;;;;5.37;3.70;;;;;18.80;101391.00;;;;2062250;28;20226;-51
2022/10/12 00:34:29;;;;;;;4.10;3.65;;;;;18.80;101387.00;;;;2059938;28;20210;-51
2022/10/12 00:35:29;;;;;;;4.90;3.80;;;;;18.80;101391.00;;;;2061913;28;20218;-57
2022/10/12 00:36:34;;;;;;;4.20;3.80;;;;;18.80;101386.00;;;;2062121;28;20214;-52
2022/10/12 00:37:34;;;;;;;4.20;3.80;;;;;18.80;101391.00;;;;2061418;28;20226;-49
2022/10/12 00:38:35;;;;;;;3.60;3.30;;;;;18.80;101394.00;;;;2050310;28;20234;-50
2022/10/12 00:39:35;;;;;;;4.47;3.70;;;;;18.80;101400.00;;;;2053357;28;20802;-50
2022/10/12 00:40:35;;;;;;;4.40;4.00;;;;;18.80;101398.00;;;;2053651;28;20775;-51
2022/10/12 00:41:41;;;;;;;3.80;3.20;;;;;18.80;101392.00;;;;2053754;28;20234;-50
2022/10/12 00:42:41;;;;;;;4.18;3.50;;;;;18.80;101386.00;;;;2057870;28;20225;-51
2022/10/12 00:43:42;;;;;;;3.53;3.23;;;;;18.80;101393.00;;;;2061668;28;20233;-51
2022/10/12 00:44:44;;;;;;;4.60;3.63;;;;;18.80;101394.00;;;;2058518;28;20214;-51
2022/10/12 00:45:44;;;;;;;3.75;3.45;;;;;18.80;101389.00;;;;2053160;28;20462;-50
2022/10/12 00:46:45;;;;;;;4.23;3.83;;;;;18.80;101387.00;;;;2053743;28;20218;-51
2022/10/12 00:47:49;;;;;;;4.30;3.70;;;;;18.80;101390.00;;;;2052484;28;20234;-51
2022/10/12 00:48:53;;;;;;;4.55;4.07;;;;;18.80;101388.00;;;;2051310;28;20290;-50
2022/10/12 00:49:58;;;;;;;4.40;4.00;;;;;18.80;101393.00;;;;2058118;28;20721;-51
2022/10/12 00:50:58;;;;;;;4.10;3.70;;;;;18.80;101387.00;;;;2058948;28;20219;-50
2022/10/12 00:52:01;;;;;;;4.33;3.93;;;;;18.80;101393.00;;;;2044680;28;20343;-51
2022/10/12 00:53:32;;;;;;;4.35;3.95;;;;;18.80;101396.00;;;;2049040;28;20245;-50
2022/10/12 00:54:34;;;;;;;3.97;3.67;;;;;18.80;101387.00;;;;2052446;28;20220;-50
2022/10/12 00:55:39;;;;;;;4.90;4.13;;;;;18.80;101394.00;;;;2061167;28;20219;-50
2022/10/12 00:56:40;;;;;;;3.80;3.50;;;;;18.80;101394.00;;;;2061549;28;20218;-50
2022/10/12 00:57:41;;;;;;;3.70;3.30;;;;;18.80;101394.00;;;;2053406;28;20273;-50
2022/10/12 00:58:41;;;;;;;3.80;3.50;;;;;18.80;101392.00;;;;2061369;28;20223;-50
2022/10/12 00:59:45;;;;;;;4.13;3.73;;;;;18.80;101391.00;;;;2053259;28;20215;-50
2022/10/12 01:00:45;;;;;;;4.22;3.83;;;;;18.80;101393.00;;;;2045883;28;20700;-48
2022/10/12 01:01:46;;;;;;;3.83;3.53;;;;;18.80;101391.00;;;;2039345;29;20211;-50
2022/10/12 01:02:46;;;;;;;4.97;4.10;;;;;18.80;101384.00;;;;2052931;28;20212;-50
2022/10/12 01:03:46;;;;;;;4.33;3.80;;;;;18.80;101397.00;;;;2053331;28;20248;-50
2022/10/12 01:04:47;;;;;;;4.20;3.80;;;;;18.80;101382.00;;;;2045199;28;20217;-49
2022/10/12 01:05:47;;;;;;;4.00;3.60;;;;;18.80;101386.00;;;;2045270;28;20767;-50
2022/10/12 01:06:47;;;;;;;3.90;3.57;;;;;18.80;101388.00;;;;2053573;28;20257;-50
2022/10/12 01:07:48;;;;;;;3.80;3.50;;;;;18.80;101392.00;;;;2053367;28;20207;-50
2022/10/12 01:08:48;;;;;;;3.53;3.23;;;;;18.80;101382.00;;;;2053524;28;20235;-50
2022/10/12 01:09:48;;;;;;;3.50;3.20;;;;;18.80;101369.00;;;;2053521;28;20221;-50
2022/10/12 01:10:49;;;;;;;3.50;3.20;;;;;18.80;101385.00;;;;2045520;28;20207;-50
2022/10/12 01:11:49;;;;;;;4.03;3.67;;;;;18.80;101387.00;;;;2052366;28;20222;-50
2022/10/12 01:12:49;;;;;;;3.63;3.30;;;;;18.20;101390.00;;;;2054134;28;20218;-50
2022/10/12 01:13:50;;;;;;;3.80;3.40;;;;;18.80;101380.00;;;;2054003;28;20215;-50
2022/10/12 01:14:50;;;;;;;3.73;3.37;;;;;18.80;101380.00;;;;2054187;28;20727;-50
2022/10/12 01:16:24;;;;;;;3.60;3.30;;;;;18.80;101386.00;;;;2055463;28;20715;-50
2022/10/12 01:17:40;;;;;;;3.88;3.47;;;;;18.80;101389.00;;;;2037044;28;20622;-50
2022/10/12 01:18:54;;;;;;;4.38;3.95;;;;;18.80;101386.00;;;;2062469;28;20359;-50
2022/10/12 01:20:32;;;;;;;3.50;3.20;;;;;18.80;101390.00;;;;2054451;28;20214;-50
2022/10/12 01:21:34;;;;;;;4.43;3.15;;;;;18.80;101384.00;;;;2063712;28;20300;-49
2022/10/12 01:22:44;;;;;;;4.07;3.75;;;;;18.80;101387.00;;;;2061242;28;20269;-50
2022/10/12 01:23:58;;;;;;;3.55;3.10;;;;;18.80;101380.00;;;;2047660;28;20634;-50
2022/10/12 01:25:33;;;;;;;3.85;3.55;;;;;18.80;101384.00;;;;2048980;28;20834;-50
2022/10/12 01:26:52;;;;;;;3.55;3.20;;;;;18.80;101375.00;;;;2050642;28;20207;-51
2022/10/12 01:27:54;;;;;;;4.22;3.40;;;;;18.80;101374.00;;;;2060297;28;20718;-50
2022/10/12 01:29:03;;;;;;;3.75;3.45;;;;;18.80;101367.00;;;;2054688;28;20691;-50
2022/10/12 01:30:12;;;;;;;3.72;3.40;;;;;18.80;101380.00;;;;2057195;28;20270;-49
2022/10/12 01:31:44;;;;;;;3.75;3.22;;;;;18.80;101373.00;;;;2062405;28;20296;-50
2022/10/12 01:33:04;;;;;;;3.30;2.95;;;;;18.80;101374.00;;;;2049891;28;20223;-51
2022/10/12 01:34:16;;;;;;;3.92;3.53;;;;;18.80;101363.00;;;;2062768;28;20221;-50
2022/10/12 01:35:19;;;;;;;4.00;3.60;;;;;18.80;101358.00;;;;2064052;28;20437;-50
2022/10/12 01:36:36;;;;;;;3.00;2.78;;;;;18.80;101276.00;;;;2057503;28;20267;-50
2022/10/12 01:37:57;;;;;;;3.88;3.55;;;;;18.80;101369.00;;;;2053333;28;20806;-50
2022/10/12 01:39:06;;;;;;;3.30;3.00;;;;;18.80;101363.00;;;;2062952;28;20227;-50
2022/10/12 01:40:08;;;;;;;4.13;3.50;;;;;18.80;101367.00;;;;2062837;28;20228;-50
2022/10/12 01:41:20;;;;;;;3.55;3.25;;;;;18.80;101364.00;;;;2054666;28;20239;-50
2022/10/12 01:42:35;;;;;;;4.50;3.75;;;;;18.80;101370.00;;;;2040867;28;20215;-50
2022/10/12 01:43:38;;;;;;;3.85;3.30;;;;;18.80;101364.00;;;;2051690;28;20499;-50
2022/10/12 01:44:38;;;;;;;4.43;3.60;;;;;18.80;101352.00;;;;2058938;28;20305;-50
2022/10/12 01:45:39;;;;;;;3.60;3.30;;;;;18.80;101362.00;;;;2055204;28;20232;-50
2022/10/12 01:46:40;;;;;;;3.60;3.30;;;;;18.80;101356.00;;;;2055337;28;20239;-50
2022/10/12 01:47:41;;;;;;;4.05;3.65;;;;;18.80;101362.00;;;;2055246;28;20219;-51
2022/10/12 01:48:43;;;;;;;3.70;3.00;;;;;18.70;101357.00;;;;2046599;28;20203;-50
2022/10/12 01:49:44;;;;;;;4.03;3.53;;;;;18.70;101347.00;;;;2051351;28;20215;-51
2022/10/12 01:50:49;;;;;;;4.03;3.70;;;;;18.70;101349.00;;;;2062367;28;20599;-50
2022/10/12 01:52:23;;;;;;;3.67;3.22;;;;;18.80;101355.00;;;;2061571;28;20244;-51
2022/10/12 01:53:32;;;;;;;3.70;3.40;;;;;18.70;101351.00;;;;2054648;28;20222;-49
2022/10/12 01:54:50;;;;;;;3.83;3.38;;;;;18.80;101346.00;;;;2057323;28;20233;-50
2022/10/12 01:56:03;;;;;;;4.00;3.45;;;;;18.70;101349.00;;;;2062288;28;20236;-50
2022/10/12 01:57:08;;;;;;;3.67;3.38;;;;;18.80;101348.00;;;;2062465;28;20246;-49
2022/10/12 01:58:32;;;;;;;3.65;3.35;;;;;18.70;101352.00;;;;2062568;28;20211;-50
2022/10/12 01:59:43;;;;;;;3.20;2.90;;;;;18.70;101350.00;;;;2062310;28;20245;-50
2022/10/12 02:01:04;;;;;;;3.50;3.20;;;;;18.80;101349.00;;;;2061834;28;20341;-50
2022/10/12 02:02:23;;;;;;;3.70;2.90;;;;;18.80;101349.00;;;;2061479;28;20294;-50
2022/10/12 02:03:35;;;;;;;3.50;3.20;;;;;18.80;101345.00;;;;2054502;28;20654;-50
2022/10/12 02:04:38;;;;;;;3.88;3.50;;;;;18.80;101341.00;;;;2050037;28;20261;-50
2022/10/12 02:05:50;;;;;;;3.70;3.40;;;;;18.70;101341.00;;;;2054723;28;20657;-50
2022/10/12 02:06:52;;;;;;;4.07;3.67;;;;;18.70;101331.00;;;;2054137;28;20591;-49
2022/10/12 02:07:57;;;;;;;3.90;3.50;;;;;18.70;101347.00;;;;2038980;28;20212;-51
2022/10/12 02:09:04;;;;;;;4.30;3.90;;;;;18.70;101344.00;;;;2047245;28;20263;-50
2022/10/12 02:10:05;;;;;;;3.53;3.20;;;;;18.70;101358.00;;;;2061593;28;20318;-50
2022/10/12 02:11:10;;;;;;;3.55;3.22;;;;;18.70;101349.00;;;;2053888;28;20309;-50
2022/10/12 02:12:12;;;;;;;3.00;2.80;;;;;18.70;101349.00;;;;2053678;28;20215;-50
2022/10/12 02:13:13;;;;;;;3.40;3.10;;;;;18.70;101344.00;;;;2054093;28;20328;-50
2022/10/12 02:14:36;;;;;;;3.17;2.87;;;;;18.70;101347.00;;;;2054204;28;20222;-54
2022/10/12 02:15:36;;;;;;;3.28;2.97;;;;;18.70;101343.00;;;;2062438;28;20276;-50
2022/10/12 02:16:39;;;;;;;3.33;3.03;;;;;18.70;101348.00;;;;2054768;28;20720;-51
2022/10/12 02:17:39;;;;;;;3.55;3.25;;;;;18.70;101348.00;;;;2062532;28;20218;-50
2022/10/12 02:18:42;;;;;;;3.90;3.50;;;;;18.70;101350.00;;;;2054662;28;20278;-50
2022/10/12 02:19:46;;;;;;;2.90;2.60;;;;;18.50;101344.00;;;;2054593;28;20215;-49
2022/10/12 02:20:46;;;;;;;4.00;3.60;;;;;18.70;101347.00;;;;2054164;28;20273;-51
2022/10/12 02:21:47;;;;;;;3.47;3.00;;;;;18.70;101348.00;;;;2061822;28;20222;-50
2022/10/12 02:22:48;;;;;;;5.10;3.53;;;;;18.70;101344.00;;;;2061855;28;20221;-50
2022/10/12 02:23:48;;;;;;;3.17;2.88;;;;;18.70;101342.00;;;;2062487;28;20224;-51
2022/10/12 02:24:49;;;;;;;3.63;3.27;;;;;18.70;101340.00;;;;2054246;28;20473;-50
2022/10/12 02:25:50;;;;;;;3.57;3.27;;;;;18.70;101343.00;;;;2038358;29;20237;-49
2022/10/12 02:26:51;;;;;;;3.40;3.10;;;;;18.70;101250.00;;;;2054152;28;20223;-50
2022/10/12 02:27:58;;;;;;;3.30;2.90;;;;;18.70;101342.00;;;;2062588;28;20214;-50
2022/10/12 02:28:59;;;;;;;3.67;3.38;;;;;18.70;101326.00;;;;2063018;28;20214;-50
2022/10/12 02:29:59;;;;;;;3.42;2.95;;;;;18.70;101341.00;;;;2054469;28;20237;-49
2022/10/12 02:31:24;;;;;;;3.53;3.20;;;;;18.70;101342.00;;;;2054239;28;20669;-50
2022/10/12 02:32:28;;;;;;;4.30;3.17;;;;;18.70;101267.00;;;;2066403;28;20226;-50
2022/10/12 02:33:34;;;;;;;2.83;2.63;;;;;18.70;101325.00;;;;2061573;28;20306;-50
2022/10/12 02:34:38;;;;;;;3.25;2.95;;;;;18.70;101319.00;;;;2049521;28;20215;-50
2022/10/12 02:35:42;;;;;;;3.80;3.30;;;;;18.70;101326.00;;;;2050852;28;20226;-50
2022/10/12 02:37:14;;;;;;;3.45;3.15;;;;;18.70;101319.00;;;;2046784;28;20609;-50
2022/10/12 02:38:26;;;;;;;3.08;2.75;;;;;18.70;101316.00;;;;2045153;29;20262;-50
2022/10/12 02:39:32;;;;;;;3.85;3.20;;;;;18.70;101323.00;;;;2050159;28;20231;-50
2022/10/12 02:40:35;;;;;;;3.00;2.80;;;;;18.70;101317.00;;;;2044392;28;20371;-50
2022/10/12 02:41:39;;;;;;;3.20;2.90;;;;;18.70;101315.00;;;;2054458;28;20282;-50
2022/10/12 02:42:41;;;;;;;3.00;2.80;;;;;18.70;101308.00;;;;2061238;28;20245;-50
2022/10/12 02:44:00;;;;;;;4.18;2.90;;;;;18.70;101322.00;;;;2054878;28;20317;-51
2022/10/12 02:45:03;;;;;;;3.55;3.08;;;;;18.70;101312.00;;;;2054333;28;20234;-50
2022/10/12 02:46:04;;;;;;;2.97;2.67;;;;;18.70;101311.00;;;;2046371;28;20219;-50
2022/10/12 02:47:05;;;;;;;3.55;3.03;;;;;18.60;101307.00;;;;2046219;28;20573;-49
2022/10/12 02:48:06;;;;;;;3.65;2.97;;;;;18.70;101310.00;;;;2045925;28;20231;-50
2022/10/12 02:49:06;;;;;;;3.33;3.03;;;;;18.70;101315.00;;;;2045801;28;20454;-50
2022/10/12 02:50:07;;;;;;;3.40;3.10;;;;;18.70;101312.00;;;;2046258;28;20744;-51
2022/10/12 02:51:07;;;;;;;2.87;2.63;;;;;18.70;101310.00;;;;2046386;28;20223;-50
2022/10/12 02:52:08;;;;;;;3.10;2.83;;;;;18.70;101311.00;;;;2045284;28;20220;-50
2022/10/12 02:53:08;;;;;;;3.00;2.70;;;;;18.70;101308.00;;;;2046429;28;20216;-50
2022/10/12 02:54:10;;;;;;;3.10;2.80;;;;;18.70;101304.00;;;;2045780;28;20248;-50
2022/10/12 02:55:10;;;;;;;3.70;3.30;;;;;18.70;101302.00;;;;2054134;28;20318;-50
2022/10/12 02:56:12;;;;;;;3.60;3.23;;;;;18.70;101312.00;;;;2054206;28;20219;-50
2022/10/12 02:57:12;;;;;;;2.63;2.42;;;;;18.70;101307.00;;;;2046131;28;20213;-50
2022/10/12 02:58:13;;;;;;;3.37;3.07;;;;;18.70;101304.00;;;;2054050;28;20218;-50
2022/10/12 02:59:14;;;;;;;3.13;2.83;;;;;18.40;101304.00;;;;2054729;28;20226;-52
2022/10/12 03:00:14;;;;;;;3.38;3.08;;;;;18.70;101302.00;;;;2054635;28;20218;-51
2022/10/12 03:01:15;;;;;;;3.20;2.90;;;;;18.70;101307.00;;;;2054679;28;20222;-51
2022/10/12 03:02:16;;;;;;;3.07;2.80;;;;;18.70;101309.00;;;;2053399;28;20882;-50
2022/10/12 03:03:16;;;;;;;4.10;3.07;;;;;18.70;101308.00;;;;2054876;28;20466;-51
2022/10/12 03:04:16;;;;;;;3.03;2.80;;;;;18.70;101305.00;;;;2045639;28;20672;-51
2022/10/12 03:05:17;;;;;;;3.13;2.60;;;;;18.70;101301.00;;;;2045779;28;20215;-50
2022/10/12 03:06:19;;;;;;;3.50;3.20;;;;;18.70;101306.00;;;;2055899;28;20219;-51
2022/10/12 03:07:19;;;;;;;2.95;2.75;;;;;18.70;101302.00;;;;2062726;28;20210;-52
2022/10/12 03:08:19;;;;;;;3.07;2.60;;;;;18.70;101302.00;;;;2062804;28;20770;-50
2022/10/12 03:09:20;;;;;;;2.77;2.57;;;;;18.70;101299.00;;;;2062765;28;20225;-51
2022/10/12 03:10:20;;;;;;;3.03;2.73;;;;;18.70;101295.00;;;;2062591;28;20221;-50
2022/10/12 03:11:20;;;;;;;3.27;2.97;;;;;18.70;101289.00;;;;2062811;28;20214;-52
2022/10/12 03:12:21;;;;;;;3.23;2.50;;;;;18.70;101305.00;;;;2058384;28;20234;-51
2022/10/12 03:13:21;;;;;;;2.60;2.40;;;;;18.70;101299.00;;;;2054610;28;20297;-49
2022/10/12 03:14:22;;;;;;;2.60;2.37;;;;;18.70;101300.00;;;;2054724;28;20856;-50
2022/10/12 03:15:22;;;;;;;3.43;2.83;;;;;18.70;101304.00;;;;2054496;28;20226;-50
2022/10/12 03:16:22;;;;;;;2.90;2.70;;;;;18.70;101313.00;;;;2054367;28;20222;-50
2022/10/12 03:17:23;;;;;;;2.70;2.40;;;;;18.70;101291.00;;;;2054201;28;20211;-55
2022/10/12 03:18:23;;;;;;;2.97;2.70;;;;;18.70;101287.00;;;;2054362;28;20264;-50
2022/10/12 03:19:24;;;;;;;3.33;2.53;;;;;18.70;101291.00;;;;2054506;28;20200;-50
2022/10/12 03:20:24;;;;;;;3.30;3.00;;;;;18.70;101294.00;;;;2054825;28;20272;-51
2022/10/12 03:21:24;;;;;;;3.30;3.00;;;;;18.70;101294.00;;;;2054692;28;20231;-51
2022/10/12 03:22:25;;;;;;;3.27;3.00;;;;;18.70;101299.00;;;;2053832;28;20214;-50
2022/10/12 03:23:25;;;;;;;2.80;2.50;;;;;18.70;101292.00;;;;2054452;28;20238;-50
2022/10/12 03:24:25;;;;;;;3.00;2.70;;;;;18.70;101287.00;;;;2054476;28;20225;-50
2022/10/12 03:25:26;;;;;;;3.37;2.90;;;;;18.70;101293.00;;;;2054338;28;20215;-50
2022/10/12 03:26:26;;;;;;;2.87;2.63;;;;;18.70;101291.00;;;;2054389;28;20230;-49
2022/10/12 03:27:26;;;;;;;3.03;2.73;;;;;18.70;101296.00;;;;2054504;28;20221;-49
2022/10/12 03:28:27;;;;;;;3.03;2.83;;;;;18.70;101291.00;;;;2054560;28;20691;-49
2022/10/12 03:29:27;;;;;;;3.17;2.63;;;;;18.70;101299.00;;;;2054102;28;20223;-49
2022/10/12 03:30:28;;;;;;;3.00;2.70;;;;;18.70;101299.00;;;;2054719;28;20227;-49
2022/10/12 03:31:28;;;;;;;2.90;2.57;;;;;18.60;101283.00;;;;2062358;28;20710;-49
2022/10/12 03:32:28;;;;;;;2.70;2.50;;;;;18.60;101289.00;;;;2061635;28;20213;-49
2022/10/12 03:33:29;;;;;;;3.23;3.00;;;;;18.70;101292.00;;;;2062431;28;20214;-48
2022/10/12 03:34:29;;;;;;;3.07;2.80;;;;;18.60;101276.00;;;;2062492;28;20239;-49
2022/10/12 03:35:29;;;;;;;3.30;2.90;;;;;18.70;101283.00;;;;2062445;28;20211;-48
2022/10/12 03:36:30;;;;;;;3.20;2.90;;;;;18.70;101284.00;;;;2062136;28;20225;-49
2022/10/12 03:37:30;;;;;;;3.03;2.73;;;;;18.70;101292.00;;;;2062263;28;20223;-49
2022/10/12 03:38:30;;;;;;;3.47;2.47;;;;;18.70;101288.00;;;;2062250;28;20294;-49
2022/10/12 03:39:31;;;;;;;2.50;2.30;;;;;18.70;101294.00;;;;2062101;28;20235;-49
2022/10/12 03:40:31;;;;;;;3.10;2.80;;;;;18.70;101299.00;;;;2057827;28;20354;-49
2022/10/12 03:41:31;;;;;;;3.73;3.33;;;;;18.70;101294.00;;;;2054386;28;20210;-50
2022/10/12 03:42:32;;;;;;;4.03;3.00;;;;;18.70;101292.00;;;;2052419;28;20357;-50
2022/10/12 03:43:33;;;;;;;3.00;2.53;;;;;18.70;101286.00;;;;2054415;28;20208;-49
2022/10/12 03:44:33;;;;;;;3.75;2.58;;;;;18.70;101284.00;;;;2056980;28;20203;-49
2022/10/12 03:45:33;;;;;;;2.50;2.30;;;;;18.70;101285.00;;;;2054533;28;20211;-49
2022/10/12 03:46:34;;;;;;;2.60;2.40;;;;;18.60;101281.00;;;;2054367;28;21131;-49
2022/10/12 03:47:34;;;;;;;2.60;2.40;;;;;18.60;101285.00;;;;2054526;28;20211;-50
2022/10/12 03:48:34;;;;;;;3.07;2.77;;;;;18.60;101291.00;;;;2054277;28;20510;-50
2022/10/12 03:49:35;;;;;;;3.70;2.63;;;;;18.70;101294.00;;;;2054320;28;21203;-49
2022/10/12 03:50:35;;;;;;;2.50;2.30;;;;;18.70;101286.00;;;;2054497;28;20234;-49
2022/10/12 03:51:35;;;;;;;2.90;2.70;;;;;18.70;101285.00;;;;2054289;28;20420;-50
2022/10/12 03:52:36;;;;;;;2.87;2.40;;;;;18.70;101279.00;;;;2053970;28;20249;-50
2022/10/12 03:53:36;;;;;;;3.10;2.80;;;;;18.70;101218.00;;;;2061027;28;20267;-49
2022/10/12 03:54:36;;;;;;;2.53;2.33;;;;;18.70;101292.00;;;;2055947;28;20203;-49
2022/10/12 03:55:37;;;;;;;3.33;2.90;;;;;18.70;101288.00;;;;2061489;28;20246;-50
2022/10/12 03:56:37;;;;;;;2.73;2.53;;;;;18.70;101284.00;;;;2062590;28;20207;-50
2022/10/12 03:57:37;;;;;;;2.33;2.13;;;;;18.70;101274.00;;;;2062679;28;20217;-49
2022/10/12 03:58:38;;;;;;;3.03;2.73;;;;;18.70;101281.00;;;;2062144;28;20293;-49
2022/10/12 03:59:38;;;;;;;2.60;2.20;;;;;18.70;101285.00;;;;2058909;28;20234;-49
2022/10/12 04:00:38;;;;;;;3.50;2.60;;;;;18.70;101285.00;;;;2058760;28;20218;-49
2022/10/12 04:01:39;;;;;;;2.97;2.77;;;;;18.60;101284.00;;;;2057473;28;20285;-49
2022/10/12 04:02:39;;;;;;;2.73;2.13;;;;;18.60;101285.00;;;;2058981;28;20218;-49
2022/10/12 04:03:39;;;;;;;2.70;2.50;;;;;18.70;101287.00;;;;2059902;28;20247;-50
2022/10/12 04:04:39;;;;;;;2.83;2.40;;;;;18.50;101292.00;;;;2039626;28;20240;-50
2022/10/12 04:05:40;;;;;;;3.03;2.20;;;;;18.70;101286.00;;;;2054302;28;20219;-50
2022/10/12 04:06:40;;;;;;;2.73;2.40;;;;;18.40;101288.00;;;;2054281;28;20247;-50
2022/10/12 04:07:40;;;;;;;3.30;2.60;;;;;18.60;101284.00;;;;2054471;28;20265;-50
2022/10/12 04:08:41;;;;;;;3.00;2.70;;;;;18.60;101288.00;;;;2054387;28;20226;-50
2022/10/12 04:09:41;;;;;;;2.90;2.60;;;;;18.60;101283.00;;;;2054052;28;20286;-50
2022/10/12 04:10:41;;;;;;;2.80;2.33;;;;;18.60;101278.00;;;;2052130;28;20215;-50
2022/10/12 04:11:42;;;;;;;3.17;2.87;;;;;18.60;101286.00;;;;2044983;28;20215;-49
2022/10/12 04:12:42;;;;;;;2.87;2.63;;;;;18.60;101282.00;;;;2043177;28;20228;-50
2022/10/12 04:13:43;;;;;;;2.60;2.40;;;;;18.60;101265.00;;;;2054303;28;20223;-50
2022/10/12 04:14:43;;;;;;;2.40;2.20;;;;;18.60;101278.00;;;;2052029;28;20211;-49
2022/10/12 04:15:43;;;;;;;3.10;2.53;;;;;18.60;101279.00;;;;2053243;28;20254;-49
2022/10/12 04:16:43;;;;;;;2.97;2.30;;;;;18.70;101288.00;;;;2052208;28;20250;-49
2022/10/12 04:17:44;;;;;;;3.07;2.70;;;;;18.60;101285.00;;;;2052892;28;20211;-50
2022/10/12 04:18:44;;;;;;;2.37;2.17;;;;;18.60;101287.00;;;;2062213;28;20596;-50
2022/10/12 04:19:45;;;;;;;2.77;2.47;;;;;18.60;101283.00;;;;2060001;28;21019;-49
2022/10/12 04:20:48;;;;;;;2.80;2.57;;;;;18.60;101277.00;;;;2060890;28;20224;-50
2022/10/12 04:21:48;;;;;;;2.83;2.53;;;;;18.60;101271.00;;;;2059314;28;20221;-49
2022/10/12 04:22:49;;;;;;;2.57;2.37;;;;;18.60;101272.00;;;;2061355;28;20345;-50
2022/10/12 04:23:49;;;;;;;2.73;2.53;;;;;18.60;101275.00;;;;2062145;28;20199;-50
2022/10/12 04:24:49;;;;;;;2.67;2.47;;;;;18.60;101276.00;;;;2062142;28;20213;-50
2022/10/12 04:25:50;;;;;;;2.40;2.20;;;;;18.60;101280.00;;;;2062004;28;20218;-50
2022/10/12 04:26:50;;;;;;;3.30;3.00;;;;;18.60;101283.00;;;;2059881;28;20702;-50
2022/10/12 04:27:50;;;;;;;2.63;2.40;;;;;18.60;101274.00;;;;2062311;28;20217;-49
2022/10/12 04:28:51;;;;;;;2.87;2.53;;;;;18.60;101272.00;;;;2062248;28;20207;-50
2022/10/12 04:29:51;;;;;;;2.80;2.50;;;;;18.60;101275.00;;;;2061134;28;20214;-50
2022/10/12 04:30:51;;;;;;;3.40;2.90;;;;;18.60;101268.00;;;;2057456;28;20236;-50
2022/10/12 04:31:52;;;;;;;2.83;2.60;;;;;18.60;101266.00;;;;2053398;28;20294;-50
2022/10/12 04:32:52;;;;;;;2.90;2.70;;;;;18.60;101273.00;;;;2059988;28;20217;-50
2022/10/12 04:33:55;;;;;;;2.60;2.40;;;;;18.60;101267.00;;;;2062271;28;20234;-50
2022/10/12 04:34:56;;;;;;;2.40;2.20;;;;;18.60;101269.00;;;;2061951;28;20236;-49
2022/10/12 04:35:56;;;;;;;2.57;2.07;;;;;18.60;101267.00;;;;2061825;28;20244;-50
2022/10/12 04:36:56;;;;;;;2.40;2.20;;;;;18.60;101274.00;;;;2059535;28;20222;-50
2022/10/12 04:37:57;;;;;;;2.40;2.20;;;;;18.60;101274.00;;;;2053563;28;20223;-50
2022/10/12 04:38:57;;;;;;;4.13;2.47;;;;;18.60;101262.00;;;;2053343;28;20362;-49
2022/10/12 04:39:57;;;;;;;3.03;2.57;;;;;18.60;101268.00;;;;2054085;28;20219;-49
2022/10/12 04:40:58;;;;;;;3.07;2.47;;;;;18.60;101278.00;;;;2054255;28;20214;-51
2022/10/12 04:41:58;;;;;;;2.47;2.27;;;;;18.60;101267.00;;;;2052531;28;20298;-51
2022/10/12 04:42:59;;;;;;;3.17;2.70;;;;;18.60;101267.00;;;;2053185;28;20226;-51
2022/10/12 04:43:59;;;;;;;2.77;2.57;;;;;18.60;101275.00;;;;2054146;28;20218;-52
2022/10/12 04:44:59;;;;;;;3.10;2.70;;;;;18.60;101270.00;;;;2054613;28;20219;-50
2022/10/12 04:46:00;;;;;;;2.77;2.57;;;;;18.60;101274.00;;;;2051602;28;20305;-50
2022/10/12 04:47:00;;;;;;;2.47;2.27;;;;;18.60;101279.00;;;;2054330;28;20392;-51
2022/10/12 04:48:01;;;;;;;2.80;2.60;;;;;18.60;101275.00;;;;2057931;28;20225;-51
2022/10/12 04:49:01;;;;;;;3.07;2.70;;;;;18.60;101272.00;;;;2059791;28;20276;-51
2022/10/12 04:50:01;;;;;;;3.00;2.70;;;;;18.60;101274.00;;;;2061496;28;20704;-51
2022/10/12 04:51:02;;;;;;;2.47;2.27;;;;;18.60;101270.00;;;;2061932;28;20225;-50
2022/10/12 04:52:02;;;;;;;3.00;2.70;;;;;18.60;101276.00;;;;2062088;28;20212;-51
2022/10/12 04:53:02;;;;;;;2.30;2.10;;;;;18.60;101280.00;;;;2062269;28;20217;-51
2022/10/12 04:54:03;;;;;;;3.10;2.63;;;;;18.60;101279.00;;;;2063177;28;20241;-50
2022/10/12 04:55:03;;;;;;;2.70;2.50;;;;;18.60;101280.00;;;;2063103;28;20214;-51
2022/10/12 04:56:04;;;;;;;2.50;2.30;;;;;18.60;101280.00;;;;2062675;28;20252;-51
2022/10/12 04:57:04;;;;;;;2.40;2.20;;;;;18.60;101277.00;;;;2062321;28;20237;-51
2022/10/12 04:58:05;;;;;;;2.43;2.23;;;;;18.60;101286.00;;;;2062486;28;20329;-51
2022/10/12 04:59:05;;;;;;;3.33;2.63;;;;;18.60;101278.00;;;;2063320;28;20222;-51
2022/10/12 05:00:06;;;;;;;2.87;2.50;;;;;18.60;101276.00;;;;2063301;28;20221;-51
2022/10/12 05:01:06;;;;;;;3.58;2.72;;;;;18.60;101281.00;;;;2063322;28;20314;-50
2022/10/12 05:02:07;;;;;;;3.00;2.70;;;;;18.60;101277.00;;;;2062902;28;20252;-51
2022/10/12 05:03:07;;;;;;;3.20;2.90;;;;;18.60;101276.00;;;;2061172;28;20232;-51
2022/10/12 05:04:07;;;;;;;3.07;2.37;;;;;18.60;101264.00;;;;2063119;28;20226;-51
2022/10/12 05:05:08;;;;;;;3.33;2.63;;;;;18.60;101272.00;;;;2063584;28;20244;-51
2022/10/12 05:06:08;;;;;;;2.90;2.40;;;;;18.60;101265.00;;;;2062948;28;20308;-50
2022/10/12 05:07:09;;;;;;;2.80;2.50;;;;;18.60;101264.00;;;;2063025;28;20230;-50
2022/10/12 05:08:09;;;;;;;2.50;2.20;;;;;18.60;101268.00;;;;2063666;28;20227;-50
2022/10/12 05:09:09;;;;;;;2.97;2.47;;;;;18.60;101269.00;;;;2062737;28;22366;-51
2022/10/12 05:10:10;;;;;;;2.97;2.37;;;;;18.60;101267.00;;;;2062981;28;20222;-55
2022/10/12 05:11:10;;;;;;;3.20;2.50;;;;;18.60;101271.00;;;;2063707;28;20234;-55